モロニ の空港の天気 - METARとTAF

プリンス・サイード・イブラヒーム国際空港 ( FMCH / HAH ) - コモロ モロニ
飛行場実況気象(Metar)
観測時間03/09 09:00 EAT (03/09 06:00 UTC)
風向・風速東南東 2m/s
視程10km以上
天気現象
少しの雲 雲底高度 610m
全天の4割程度の雲 雲底高度 910m
気温27℃
湿度79%
気圧1014hPa
METARFMCH 090600Z 11004KT 070V150 9999 FEW020 SCT030 27/23 Q1014 NOSIG
過去の天気等 Google飛行場航空写真 Wunderground天気予報

過去48時間のMETAR

飛行場予報(TAF)
発表時間: -
9日12時 EAT ~ 9日17時 EAT に 確率 30% で一時的に
視程4500m
天気現象雷雨 しゅう雨
全天の4割程度の積乱雲 雲底高度 610m
全天の8割程度の雲 雲底高度 850m
9日18時 EAT ~ 9日20時 EAT に徐々に
風向・風速東 3m/s
少しの雲 雲底高度 610m
10日8時 EAT ~ 10日10時 EAT に徐々に
風向・風速北北西 5m/s
TAF
FMCH 090500Z 0906/1012 33010KT 9999 FEW020 SCT030
PROB30 TEMPO 0909/0914 4500 TSRA SHRA SCT020CB BKN028
BECMG 0915/0917 08005KT FEW020
BECMG 1005/1007 33010KT